Time;durP1;ratioP1;P1;durP2;ratioP2;P2;SDS_P1;SDS_P2;PMS_P1;PMS_P2;Temp;Humidity;BMP_temperature;BMP_pressure;BME280_temperature;BME280_humidity;BME280_pressure;Samples;Min_cycle;Max_cycle;Signal;HPM_P1;HPM_P2
2022/03/03 00:02:12;;;;;;;5.35;3.72;;;;;;;7.90;64.97;100583.91;5030260;28;101876;-52
2022/03/03 00:04:38;;;;;;;4.68;3.70;;;;;;;7.90;65.13;100575.78;5031909;28;102170;-52
2022/03/03 00:07:06;;;;;;;4.57;3.70;;;;;;;7.91;64.96;100571.16;5030664;27;103939;-52
2022/03/03 00:09:33;;;;;;;4.80;3.50;;;;;;;7.91;65.65;100571.16;5031043;28;102320;-53
2022/03/03 00:12:00;;;;;;;4.03;3.25;;;;;;;7.89;64.99;100566.00;5031942;28;102211;-52
2022/03/03 00:14:26;;;;;;;6.28;3.47;;;;;;;7.90;65.64;100569.53;5033378;28;102207;-52
2022/03/03 00:16:53;;;;;;;4.88;3.40;;;;;;;7.90;65.00;100570.34;5032060;28;102714;-52
2022/03/03 00:19:19;;;;;;;4.55;3.45;;;;;;;7.90;64.91;100570.34;5032214;28;102462;-53
2022/03/03 00:21:46;;;;;;;4.15;3.58;;;;;;;7.90;65.54;100559.53;5030640;27;102114;-52
2022/03/03 00:24:14;;;;;;;4.95;3.53;;;;;;;7.91;65.08;100566.56;5032661;28;102090;-53
2022/03/03 00:26:41;;;;;;;4.53;3.63;;;;;;;7.91;65.12;100565.75;5025922;28;103935;-52
2022/03/03 00:29:08;;;;;;;4.20;3.65;;;;;;;7.90;65.05;100559.53;5031798;28;102256;-52
2022/03/03 00:31:35;;;;;;;3.78;3.35;;;;;;;7.92;65.04;100565.47;5031230;27;102096;-52
2022/03/03 00:34:02;;;;;;;5.03;3.58;;;;;;;7.90;65.33;100559.53;5031968;28;102383;-52
2022/03/03 00:36:28;;;;;;;4.85;3.63;;;;;;;7.90;65.48;100554.09;5030979;28;103958;-52
2022/03/03 00:38:55;;;;;;;4.38;3.95;;;;;;;7.90;65.42;100556.81;5031795;28;102362;-53
2022/03/03 00:41:23;;;;;;;4.97;3.92;;;;;;;7.90;65.26;100556.81;5030799;28;101811;-53
2022/03/03 00:43:49;;;;;;;3.95;3.30;;;;;;;7.90;65.54;100559.53;5031934;28;102219;-53
2022/03/03 00:46:16;;;;;;;3.95;3.50;;;;;;;7.90;65.82;100559.53;5030589;28;103863;-52
2022/03/03 00:48:42;;;;;;;4.28;3.47;;;;;;;7.89;65.14;100552.44;5031297;28;102561;-52
2022/03/03 00:51:09;;;;;;;4.95;3.38;;;;;;;7.90;65.58;100554.09;5031238;28;102191;-52
2022/03/03 00:53:37;;;;;;;3.78;2.42;;;;;;;7.90;65.15;100553.28;5032628;27;102664;-53
2022/03/03 00:56:05;;;;;;;6.18;3.55;;;;;;;7.91;65.34;100560.34;5031060;28;103929;-53
2022/03/03 00:58:33;;;;;;;4.72;3.92;;;;;;;7.90;65.54;100554.09;5030966;27;102317;-53
2022/03/03 01:01:01;;;;;;;4.57;3.55;;;;;;;7.91;65.74;100546.78;5031205;28;102295;-52
2022/03/03 01:03:27;;;;;;;4.70;3.53;;;;;;;7.90;65.19;100548.69;5032088;27;102198;-52
2022/03/03 01:05:54;;;;;;;3.78;3.40;;;;;;;7.91;65.58;100541.38;5030319;28;103908;-53
2022/03/03 01:08:21;;;;;;;4.85;3.50;;;;;;;7.91;65.84;100544.06;5031739;27;102220;-53
2022/03/03 01:10:47;;;;;;;4.07;3.30;;;;;;;7.89;65.15;100538.91;5031064;28;101933;-52
2022/03/03 01:13:15;;;;;;;5.30;3.45;;;;;;;7.91;65.77;100547.59;5032522;27;102418;-52
2022/03/03 01:15:43;;;;;;;6.03;3.85;;;;;;;7.91;65.16;100544.88;5030419;27;104067;-53
2022/03/03 01:18:10;;;;;;;7.77;4.03;;;;;;;7.90;65.61;100543.25;5031522;28;102079;-52
2022/03/03 01:20:37;;;;;;;4.68;3.30;;;;;;;7.90;65.01;100540.56;5030924;28;101830;-52
2022/03/03 01:23:03;;;;;;;4.65;4.00;;;;;;;7.91;65.53;100533.25;5031780;28;102134;-53
2022/03/03 01:25:30;;;;;;;4.88;3.58;;;;;;;7.90;65.31;100537.84;5030434;28;102967;-53
2022/03/03 01:27:56;;;;;;;4.00;3.35;;;;;;;7.92;66.07;100540.28;5030836;28;101833;-52
2022/03/03 01:30:23;;;;;;;5.00;3.50;;;;;;;7.91;66.09;100528.63;5030197;28;102669;-52
2022/03/03 01:32:51;;;;;;;4.65;3.35;;;;;;;7.90;65.87;100531.59;5031508;27;102137;-52
2022/03/03 01:35:18;;;;;;;5.85;3.78;;;;;;;7.90;65.22;100526.19;5029865;28;103937;-53
2022/03/03 01:37:44;;;;;;;5.45;3.72;;;;;;;7.90;65.19;100532.44;5030978;28;102367;-52
2022/03/03 01:40:12;;;;;;;4.10;3.33;;;;;;;7.90;65.80;100520.78;5030301;28;102303;-52
2022/03/03 01:42:39;;;;;;;4.82;3.38;;;;;;;7.89;65.28;100514.50;5031130;28;102453;-52
2022/03/03 01:45:07;;;;;;;4.65;3.83;;;;;;;7.89;65.66;100517.22;5029486;27;104116;-52
2022/03/03 01:47:34;;;;;;;5.03;3.75;;;;;;;7.89;65.36;100525.34;5031035;28;101947;-52
2022/03/03 01:50:04;;;;;;;3.92;3.42;;;;;;;7.90;64.61;100520.78;5033346;28;102009;-53
2022/03/03 01:52:31;;;;;;;5.70;3.85;;;;;;;7.89;65.71;100528.06;5034384;27;102618;-53
2022/03/03 01:54:58;;;;;;;3.97;3.58;;;;;;;7.89;65.28;100519.94;5033445;28;103916;-52
2022/03/03 01:57:25;;;;;;;5.20;3.78;;;;;;;7.89;65.83;100528.06;5033958;28;102091;-52
2022/03/03 01:59:52;;;;;;;4.80;3.38;;;;;;;7.89;65.19;100517.22;5030262;28;101912;-53
2022/03/03 02:02:21;;;;;;;3.83;3.25;;;;;;;7.88;65.23;100526.44;5014621;28;102202;-52
2022/03/03 02:04:47;;;;;;;3.60;3.20;;;;;;;7.89;66.08;100525.34;5013201;28;103809;-52
2022/03/03 02:07:15;;;;;;;4.15;3.10;;;;;;;7.89;65.15;100519.13;5014104;28;102370;-52
2022/03/03 02:09:42;;;;;;;4.05;3.20;;;;;;;7.89;65.26;100519.94;5013479;28;102381;-52
2022/03/03 02:12:09;;;;;;;3.38;3.00;;;;;;;7.89;65.60;100517.22;5014723;28;102805;-53
2022/03/03 02:14:43;;;;;;;3.63;3.33;;;;;;;7.88;66.20;100510.19;5014547;28;104089;-52
2022/03/03 02:17:10;;;;;;;5.00;3.30;;;;;;;7.89;65.80;100506.38;5016186;28;102041;-52
2022/03/03 02:19:37;;;;;;;4.40;3.50;;;;;;;7.88;65.69;100518.31;5015223;28;102135;-53
2022/03/03 02:22:05;;;;;;;3.75;3.30;;;;;;;7.88;65.90;100507.47;5015565;28;102267;-52
2022/03/03 02:24:32;;;;;;;3.47;3.13;;;;;;;7.89;65.63;100519.13;5014620;28;103891;-52
2022/03/03 02:27:00;;;;;;;4.10;3.40;;;;;;;7.88;65.54;100515.59;5034167;28;102161;-52
2022/03/03 02:29:27;;;;;;;4.00;3.40;;;;;;;7.88;65.03;100510.19;5032858;28;102754;-52
2022/03/03 02:31:54;;;;;;;4.50;3.20;;;;;;;7.88;65.60;100502.03;5035009;27;102862;-52
2022/03/03 02:34:21;;;;;;;3.47;3.17;;;;;;;7.88;65.63;100507.47;5014944;28;103932;-52
2022/03/03 02:36:47;;;;;;;5.70;3.78;;;;;;;7.88;65.84;100512.88;5033896;27;102594;-53
2022/03/03 02:39:15;;;;;;;3.50;2.97;;;;;;;7.88;65.25;100503.94;5033580;28;102026;-52
2022/03/03 02:41:42;;;;;;;4.03;3.40;;;;;;;7.89;65.33;100502.88;5034033;28;102470;-53
2022/03/03 02:44:09;;;;;;;5.38;3.97;;;;;;;7.89;65.30;100514.50;5032926;27;103920;-52
2022/03/03 02:46:36;;;;;;;4.60;3.28;;;;;;;7.89;65.87;100509.09;5033391;28;101940;-52
2022/03/03 02:49:02;;;;;;;4.18;3.28;;;;;;;7.87;65.01;100516.69;5033489;27;101933;-52
2022/03/03 02:51:29;;;;;;;4.53;3.28;;;;;;;7.88;65.88;100510.19;5034096;27;102360;-52
2022/03/03 02:53:56;;;;;;;4.75;3.50;;;;;;;7.88;65.40;100510.19;5033020;28;104032;-52
2022/03/03 02:56:24;;;;;;;6.63;3.63;;;;;;;7.88;66.24;100512.88;5034625;28;102569;-53
2022/03/03 02:58:50;;;;;;;4.60;3.50;;;;;;;7.89;65.57;100508.28;5029225;28;102380;-52
2022/03/03 03:01:17;;;;;;;3.58;3.08;;;;;;;7.88;65.50;100510.19;5014767;28;102175;-52
2022/03/03 03:03:44;;;;;;;5.18;3.60;;;;;;;7.88;65.83;100507.47;5013222;28;103907;-52
2022/03/03 03:06:13;;;;;;;4.15;3.40;;;;;;;7.88;65.76;100512.88;5025848;28;102357;-52
2022/03/03 03:08:39;;;;;;;5.57;3.60;;;;;;;7.88;64.96;100510.19;5033449;28;102299;-52
2022/03/03 03:11:06;;;;;;;3.90;3.22;;;;;;;7.88;65.93;100512.88;5034451;28;102448;-52
2022/03/03 03:13:34;;;;;;;3.55;3.25;;;;;;;7.87;65.96;100505.84;5032295;28;103822;-52
2022/03/03 03:16:00;;;;;;;3.58;3.25;;;;;;;7.87;65.77;100505.84;5033288;28;102338;-53
2022/03/03 03:18:27;;;;;;;3.80;2.97;;;;;;;7.88;65.21;100507.47;5032486;28;102345;-52
2022/03/03 03:20:53;;;;;;;4.53;3.13;;;;;;;7.87;65.69;100500.41;5033744;28;102343;-53
2022/03/03 03:23:22;;;;;;;3.53;3.22;;;;;;;7.89;65.31;100511.00;5032278;28;103693;-52
2022/03/03 03:25:49;;;;;;;3.80;3.42;;;;;;;7.87;65.99;100508.56;5033030;28;102604;-53
2022/03/03 03:28:18;;;;;;;3.95;3.38;;;;;;;7.88;65.51;100502.03;5032238;27;102285;-52
2022/03/03 03:30:46;;;;;;;4.72;3.38;;;;;;;7.88;65.29;100506.66;5033241;28;102328;-53
2022/03/03 03:33:13;;;;;;;3.67;3.13;;;;;;;7.87;65.32;100497.72;5032120;27;103902;-52
2022/03/03 03:35:40;;;;;;;3.17;2.88;;;;;;;7.87;65.16;100494.19;5032958;28;102374;-53
2022/03/03 03:38:07;;;;;;;4.68;3.53;;;;;;;7.87;65.85;100489.59;5032664;28;102090;-52
2022/03/03 03:40:33;;;;;;;3.75;3.35;;;;;;;7.88;65.16;100487.69;5019003;28;102270;-52
2022/03/03 03:43:00;;;;;;;3.70;3.40;;;;;;;7.88;65.60;100476.84;5011590;28;104101;-52
2022/03/03 03:45:27;;;;;;;3.85;3.22;;;;;;;7.87;65.24;100481.47;5030321;28;102271;-52
2022/03/03 03:47:55;;;;;;;3.90;3.30;;;;;;;7.87;65.61;100473.31;5032660;28;101906;-53
2022/03/03 03:50:22;;;;;;;4.18;3.47;;;;;;;7.88;65.71;100480.38;5034106;28;102345;-53
2022/03/03 03:52:48;;;;;;;4.75;3.70;;;;;;;7.88;65.32;100479.56;5031866;28;103890;-52
2022/03/03 03:55:15;;;;;;;4.10;3.15;;;;;;;7.88;65.14;100485.78;5032810;28;102233;-53
2022/03/03 03:57:42;;;;;;;4.68;3.55;;;;;;;7.88;64.94;100480.38;5032078;28;102243;-52
2022/03/03 04:00:12;;;;;;;5.38;3.53;;;;;;;7.87;65.28;100478.75;5033605;28;102232;-53
2022/03/03 04:02:40;;;;;;;3.50;3.03;;;;;;;7.88;65.40;100479.56;5031964;28;103934;-52
2022/03/03 04:05:08;;;;;;;4.57;3.53;;;;;;;7.88;65.73;100480.38;5032790;28;102203;-52
2022/03/03 04:07:41;;;;;;;4.05;3.20;;;;;;;7.88;65.42;100479.56;5031838;28;101822;-53
2022/03/03 04:10:09;;;;;;;3.72;3.15;;;;;;;7.87;65.21;100478.75;5033337;28;102208;-52
2022/03/03 04:12:37;;;;;;;5.40;3.80;;;;;;;7.89;65.51;100483.91;5031340;28;104027;-52
2022/03/03 04:15:04;;;;;;;4.10;3.42;;;;;;;7.87;65.08;100476.03;5032648;28;102539;-52
2022/03/03 04:17:30;;;;;;;4.53;3.03;;;;;;;7.88;65.58;100474.94;5031637;27;102156;-52
2022/03/03 04:19:57;;;;;;;3.63;3.22;;;;;;;7.88;65.66;100482.28;5033231;28;102100;-52
2022/03/03 04:22:25;;;;;;;4.07;3.55;;;;;;;7.88;65.88;100480.38;5031214;28;104037;-53
2022/03/03 04:24:51;;;;;;;4.00;3.60;;;;;;;7.87;65.25;100467.09;5031828;28;102245;-52
2022/03/03 04:27:18;;;;;;;3.08;2.75;;;;;;;7.88;65.38;100474.13;5031683;28;102576;-53
2022/03/03 04:29:45;;;;;;;3.35;2.97;;;;;;;7.87;65.17;100465.19;5032123;28;102882;-53
2022/03/03 04:32:11;;;;;;;3.28;2.85;;;;;;;7.88;65.94;100468.72;5031279;28;103922;-52
2022/03/03 04:34:39;;;;;;;3.83;3.40;;;;;;;7.88;65.82;100479.56;5032098;28;102109;-52
2022/03/03 04:37:05;;;;;;;3.40;2.67;;;;;;;7.87;66.13;100467.91;5017955;27;102534;-52
2022/03/03 04:39:33;;;;;;;3.25;2.47;;;;;;;7.87;65.49;100467.91;5024463;28;102405;-53
2022/03/03 04:42:00;;;;;;;3.78;3.00;;;;;;;7.86;65.58;100457.31;5030154;28;104044;-53
2022/03/03 04:44:27;;;;;;;3.40;3.10;;;;;;;7.87;66.17;100467.91;5029715;28;102356;-52
2022/03/03 04:46:53;;;;;;;4.10;3.30;;;;;;;7.87;65.38;100465.19;5027460;28;101947;-52
2022/03/03 04:49:20;;;;;;;3.50;2.85;;;;;;;7.87;66.25;100470.63;5032628;28;102429;-53
2022/03/03 04:51:47;;;;;;;3.78;2.75;;;;;;;7.87;65.34;100467.91;5030996;28;103811;-52
2022/03/03 04:54:13;;;;;;;2.80;2.42;;;;;;;7.86;65.59;100468.16;5030119;28;102268;-52
2022/03/03 04:56:41;;;;;;;3.33;3.03;;;;;;;7.87;65.89;100473.31;5030315;27;102377;-52
2022/03/03 04:59:08;;;;;;;3.30;2.47;;;;;;;7.88;65.43;100474.94;5031302;28;102362;-52
2022/03/03 05:01:35;;;;;;;3.22;2.80;;;;;;;7.87;65.16;100476.03;5029780;28;104197;-52
2022/03/03 05:04:01;;;;;;;3.42;2.80;;;;;;;7.87;65.47;100473.31;5030783;28;102351;-52
2022/03/03 05:06:29;;;;;;;3.17;2.88;;;;;;;7.88;65.80;100480.38;5029008;28;102068;-52
2022/03/03 05:08:55;;;;;;;3.30;2.72;;;;;;;7.88;65.47;100482.28;5031638;28;102407;-53
2022/03/03 05:11:22;;;;;;;3.28;2.97;;;;;;;7.87;66.14;100484.16;5029654;28;103871;-52
2022/03/03 05:13:50;;;;;;;3.05;2.70;;;;;;;7.88;65.64;100485.78;5030605;28;102723;-52
2022/03/03 05:16:16;;;;;;;2.88;2.58;;;;;;;7.86;65.19;100490.66;5030997;28;102363;-53
2022/03/03 05:18:43;;;;;;;2.80;2.60;;;;;;;7.88;66.13;100493.09;5031966;28;102210;-52
2022/03/03 05:21:11;;;;;;;3.05;2.67;;;;;;;7.87;66.11;100481.47;5030656;28;104040;-53
2022/03/03 05:23:38;;;;;;;3.83;2.92;;;;;;;7.87;65.59;100489.59;5032718;27;102410;-53
2022/03/03 05:26:04;;;;;;;2.95;2.65;;;;;;;7.87;65.98;100489.59;5034148;27;102579;-52
2022/03/03 05:28:31;;;;;;;3.15;2.67;;;;;;;7.87;65.37;100489.59;5035380;28;102555;-52
2022/03/03 05:30:59;;;;;;;3.58;3.08;;;;;;;7.88;65.44;100485.78;5033633;28;103832;-53
2022/03/03 05:33:26;;;;;;;3.28;2.97;;;;;;;7.88;65.63;100487.69;5034670;27;102307;-53
2022/03/03 05:35:58;;;;;;;3.45;2.92;;;;;;;7.87;65.67;100495.00;5034245;28;102002;-53
2022/03/03 05:38:29;;;;;;;3.25;2.95;;;;;;;7.88;65.50;100484.97;5035335;28;102000;-53
2022/03/03 05:40:55;;;;;;;2.85;2.58;;;;;;;7.88;65.71;100485.78;5034013;28;103692;-53
2022/03/03 05:43:23;;;;;;;2.85;2.55;;;;;;;7.88;65.53;100490.41;5034550;28;102073;-53
2022/03/03 05:45:50;;;;;;;3.17;2.88;;;;;;;7.87;65.97;100492.28;5026985;27;102396;-52
2022/03/03 05:48:20;;;;;;;2.90;2.50;;;;;;;7.88;65.94;100484.97;5017392;28;101973;-52
2022/03/03 05:50:47;;;;;;;3.03;2.67;;;;;;;7.87;65.42;100497.72;5014490;28;103755;-53
2022/03/03 05:53:16;;;;;;;4.55;3.63;;;;;;;7.89;65.57;100497.44;5030726;28;102439;-53
2022/03/03 05:55:44;;;;;;;3.53;3.10;;;;;;;7.89;66.45;100502.88;5027164;28;102211;-53
2022/03/03 05:58:14;;;;;;;3.85;2.78;;;;;;;7.88;65.54;100501.22;5017208;28;102199;-53
2022/03/03 06:00:43;;;;;;;3.42;3.00;;;;;;;7.88;65.43;100501.22;5013552;28;103969;-53
2022/03/03 06:03:13;;;;;;;4.03;2.87;;;;;;;7.88;66.33;100496.63;5014601;28;102270;-53
2022/03/03 06:05:48;;;;;;;4.13;3.15;;;;;;;7.87;66.42;100497.72;5014167;28;102604;-52
2022/03/03 06:08:30;;;;;;;4.05;3.38;;;;;;;7.88;66.28;100503.94;5015378;28;102705;-53
2022/03/03 06:11:01;;;;;;;4.10;3.10;;;;;;;7.87;65.87;100505.84;5013890;28;103684;-52
2022/03/03 06:13:35;;;;;;;6.95;3.80;;;;;;;7.88;65.71;100496.63;5014281;28;102248;-53
2022/03/03 06:16:03;;;;;;;6.97;3.75;;;;;;;7.88;66.27;100496.63;5013939;28;101808;-53
2022/03/03 06:18:32;;;;;;;6.60;4.28;;;;;;;7.89;65.62;100497.44;5014899;28;102945;-53
2022/03/03 06:21:00;;;;;;;5.53;3.50;;;;;;;7.88;66.21;100502.03;5012976;28;103888;-53
2022/03/03 06:23:27;;;;;;;5.82;2.97;;;;;;;7.87;66.31;100495.00;5014223;28;102263;-53
2022/03/03 06:26:02;;;;;;;4.38;3.00;;;;;;;7.87;65.45;100495.00;5013455;28;102172;-52
2022/03/03 06:28:30;;;;;;;4.10;3.20;;;;;;;7.87;66.23;100505.03;5032474;28;102278;-53
2022/03/03 06:30:56;;;;;;;5.03;3.28;;;;;;;7.88;65.55;100496.63;5032950;28;103889;-53
2022/03/03 06:33:23;;;;;;;4.55;3.22;;;;;;;7.87;66.05;100500.41;5028445;28;102079;-52
2022/03/03 06:35:50;;;;;;;5.63;3.25;;;;;;;7.87;65.38;100497.72;5014175;28;101895;-52
2022/03/03 06:38:18;;;;;;;4.57;3.40;;;;;;;7.87;65.98;100495.00;5034461;28;102381;-53
2022/03/03 06:40:44;;;;;;;5.70;3.47;;;;;;;7.88;66.76;100499.34;5033263;28;103720;-53
2022/03/03 06:43:11;;;;;;;4.15;3.13;;;;;;;7.87;66.01;100492.28;5034089;28;102365;-53
2022/03/03 06:45:38;;;;;;;4.53;3.28;;;;;;;7.87;66.31;100492.28;5033044;28;102422;-53
2022/03/03 06:48:05;;;;;;;4.25;3.00;;;;;;;7.88;66.29;100491.22;5034515;28;102015;-52
2022/03/03 06:50:36;;;;;;;4.35;3.60;;;;;;;7.88;65.85;100491.22;5032535;28;103875;-53
2022/03/03 06:53:03;;;;;;;4.45;3.40;;;;;;;7.88;66.12;100483.09;5034180;28;102467;-52
2022/03/03 06:55:33;;;;;;;3.75;3.22;;;;;;;7.88;65.94;100479.56;5032816;28;102550;-53
2022/03/03 06:58:00;;;;;;;4.97;3.22;;;;;;;7.88;65.93;100480.38;5022782;28;102269;-53
2022/03/03 07:00:28;;;;;;;4.60;3.50;;;;;;;7.88;66.42;100480.38;5012822;28;103854;-53
2022/03/03 07:02:55;;;;;;;4.03;3.13;;;;;;;7.88;65.78;100477.66;5013666;28;102344;-52
2022/03/03 07:05:22;;;;;;;4.50;3.25;;;;;;;7.86;65.51;100469.00;5013015;28;101922;-53
2022/03/03 07:07:54;;;;;;;3.58;2.83;;;;;;;7.88;65.68;100474.13;5030609;28;102806;-53
2022/03/03 07:10:25;;;;;;;4.90;3.13;;;;;;;7.88;65.95;100474.13;5032721;28;103953;-52
2022/03/03 07:12:55;;;;;;;5.07;3.10;;;;;;;7.87;65.97;100484.16;5033020;27;102359;-52
2022/03/03 07:15:23;;;;;;;4.90;2.97;;;;;;;7.88;65.79;100476.84;5032471;27;102242;-52
2022/03/03 07:17:51;;;;;;;4.72;3.10;;;;;;;7.88;66.68;100480.38;5034029;28;102320;-52
2022/03/03 07:20:26;;;;;;;4.38;2.83;;;;;;;7.88;66.28;100480.38;5032139;28;103935;-52
2022/03/03 07:23:02;;;;;;;3.53;3.00;;;;;;;7.89;66.34;100475.75;5033291;28;102188;-52
2022/03/03 07:25:38;;;;;;;3.78;2.85;;;;;;;7.86;65.69;100466.28;5031733;27;102591;-52
2022/03/03 07:28:09;;;;;;;4.60;3.22;;;;;;;7.88;66.24;100474.94;5034108;28;102453;-52
2022/03/03 07:30:41;;;;;;;4.28;3.25;;;;;;;7.87;65.90;100473.31;5032090;28;103864;-53
2022/03/03 07:33:16;;;;;;;3.42;2.80;;;;;;;7.88;66.38;100471.44;5033692;27;102252;-53
2022/03/03 07:35:45;;;;;;;4.07;3.28;;;;;;;7.87;66.17;100476.03;5032555;28;102358;-52
2022/03/03 07:38:14;;;;;;;4.72;3.47;;;;;;;7.88;66.16;100479.56;5033757;28;102240;-52
2022/03/03 07:40:42;;;;;;;;;;;;;;;7.88;65.75;100474.94;5032415;27;103972;-53
2022/03/03 07:43:11;;;;;;;3.90;3.10;;;;;;;7.87;65.67;100473.31;5033541;27;102209;-52
2022/03/03 07:45:38;;;;;;;5.63;3.22;;;;;;;7.87;65.41;100472.50;5031044;28;102351;-52
2022/03/03 07:48:05;;;;;;;3.75;2.78;;;;;;;7.88;66.37;100479.56;5033580;27;102713;-53
2022/03/03 07:50:31;;;;;;;3.85;3.10;;;;;;;7.88;66.74;100482.28;5032020;28;103698;-53
2022/03/03 07:52:58;;;;;;;4.40;3.40;;;;;;;7.88;65.82;100474.94;5032738;28;101719;-53
2022/03/03 07:55:24;;;;;;;4.72;3.80;;;;;;;7.88;66.36;100474.13;5032098;28;102335;-53
2022/03/03 07:57:57;;;;;;;3.75;3.30;;;;;;;7.88;66.34;100480.38;5024431;28;102127;-52
2022/03/03 08:00:27;;;;;;;10.20;4.88;;;;;;;7.83;66.35;100472.22;5014701;28;103914;-54
2022/03/03 08:02:59;;;;;;;5.38;3.90;;;;;;;7.83;66.50;100471.41;5029548;28;102459;-54
2022/03/03 08:05:29;;;;;;;7.97;4.10;;;;;;;7.84;66.31;100473.84;5011988;28;102256;-54
2022/03/03 08:07:57;;;;;;;6.53;4.00;;;;;;;7.82;66.11;100478.69;5014558;28;102042;-54
2022/03/03 08:10:27;;;;;;;10.55;4.72;;;;;;;7.79;66.84;100481.94;5022174;28;103848;-53
2022/03/03 08:12:55;;;;;;;16.98;5.25;;;;;;;7.88;66.91;100493.91;5012207;28;102314;-53
2022/03/03 08:15:22;;;;;;;11.35;4.85;;;;;;;7.89;67.43;100487.41;5026942;28;102094;-53
2022/03/03 08:17:51;;;;;;;13.25;5.10;;;;;;;7.92;67.83;100486.91;5033259;28;102884;-53
2022/03/03 08:20:18;;;;;;;10.82;4.75;;;;;;;7.95;67.04;100497.22;5031192;28;103922;-53
2022/03/03 08:22:45;;;;;;;11.20;4.70;;;;;;;7.95;67.47;100494.50;5032269;28;102391;-53
2022/03/03 08:25:12;;;;;;;11.27;4.88;;;;;;;7.98;67.97;100495.09;5031643;28;101916;-53
2022/03/03 08:27:40;;;;;;;11.45;5.38;;;;;;;8.00;67.84;100498.34;5031628;28;102204;-53
2022/03/03 08:30:08;;;;;;;10.57;5.20;;;;;;;8.00;68.28;100492.91;5022426;28;103903;-53
2022/03/03 08:32:38;;;;;;;8.10;4.72;;;;;;;8.03;67.75;100504.06;5031447;28;102619;-53
2022/03/03 08:35:13;;;;;;;10.45;4.72;;;;;;;8.03;67.88;100497.81;5030924;27;102538;-53
2022/03/03 08:37:42;;;;;;;7.22;5.45;;;;;;;8.03;68.54;100495.94;5032113;28;102217;-53
2022/03/03 08:40:11;;;;;;;9.07;4.65;;;;;;;8.05;68.31;100490.25;5030898;27;103932;-53
2022/03/03 08:42:40;;;;;;;8.07;4.80;;;;;;;8.05;67.74;100492.97;5031768;28;102067;-53
2022/03/03 08:45:10;;;;;;;7.82;4.30;;;;;;;8.06;68.07;100492.69;5030813;28;102388;-53
2022/03/03 08:47:39;;;;;;;8.20;5.20;;;;;;;8.06;67.71;100494.59;5032225;28;102279;-53
2022/03/03 08:50:10;;;;;;;8.07;4.37;;;;;;;8.07;68.66;100504.34;5030083;28;103876;-54
2022/03/03 08:52:39;;;;;;;7.97;4.82;;;;;;;8.09;68.29;100502.22;5013178;27;101879;-53
2022/03/03 08:55:08;;;;;;;7.87;4.93;;;;;;;8.07;67.97;100501.66;5011053;28;102455;-53
2022/03/03 08:57:34;;;;;;;5.65;4.15;;;;;;;8.08;67.97;100504.13;5013818;28;102447;-53
2022/03/03 09:00:01;;;;;;;6.78;4.70;;;;;;;8.09;67.44;100503.03;5014286;28;104014;-53
2022/03/03 09:02:29;;;;;;;10.05;5.05;;;;;;;8.10;68.00;100509.25;5015015;28;102287;-53
2022/03/03 09:04:55;;;;;;;10.23;5.22;;;;;;;8.09;67.52;100497.59;5014274;28;102383;-53
2022/03/03 09:07:23;;;;;;;7.85;4.82;;;;;;;8.11;68.02;100500.03;5022682;28;102315;-53
2022/03/03 09:09:50;;;;;;;8.52;4.57;;;;;;;8.11;68.48;100497.34;5033954;27;103117;-53
2022/03/03 09:12:17;;;;;;;6.22;4.50;;;;;;;8.11;67.97;100505.47;5023662;28;102182;-54
2022/03/03 09:14:44;;;;;;;6.70;4.38;;;;;;;8.10;68.50;100503.84;5020287;28;101931;-53
2022/03/03 09:17:10;;;;;;;8.23;5.10;;;;;;;8.12;67.96;100507.13;5035609;28;102156;-53
2022/03/03 09:19:37;;;;;;;5.15;4.65;;;;;;;8.13;68.27;100497.91;5034635;28;103891;-53
2022/03/03 09:22:04;;;;;;;6.93;4.75;;;;;;;8.11;67.86;100506.31;5035070;28;102388;-54
2022/03/03 09:24:32;;;;;;;7.55;4.85;;;;;;;8.13;68.44;100508.75;5034592;28;102502;-53
2022/03/03 09:27:00;;;;;;;6.93;5.38;;;;;;;8.13;67.87;100511.47;5035969;27;102098;-53
2022/03/03 09:29:28;;;;;;;5.72;5.00;;;;;;;8.12;68.42;100509.84;5035422;28;103888;-53
2022/03/03 09:31:55;;;;;;;7.05;4.50;;;;;;;8.13;67.86;100506.03;5027865;27;102443;-53
2022/03/03 09:34:25;;;;;;;6.30;4.82;;;;;;;8.13;68.36;100508.75;4998388;28;102456;-53
2022/03/03 09:36:52;;;;;;;5.15;4.65;;;;;;;8.13;68.55;100503.31;5016994;28;102717;-53
2022/03/03 09:39:21;;;;;;;4.80;4.25;;;;;;;8.14;67.69;100508.47;5014570;28;102956;-53
2022/03/03 09:41:50;;;;;;;6.05;4.72;;;;;;;8.15;68.35;100506.56;5018650;28;102182;-53
2022/03/03 09:44:20;;;;;;;7.97;5.03;;;;;;;8.14;67.99;100503.06;5014519;28;101892;-53
2022/03/03 09:46:47;;;;;;;6.82;5.22;;;;;;;8.14;68.46;100499.53;4990021;28;102006;-53
2022/03/03 09:49:14;;;;;;;6.30;4.68;;;;;;;8.15;67.76;100501.16;4994252;28;102974;-53
2022/03/03 09:51:41;;;;;;;6.25;4.53;;;;;;;8.15;68.04;100506.56;4995156;28;102478;-53
2022/03/03 09:54:09;;;;;;;4.80;4.32;;;;;;;8.15;68.07;100501.16;4994523;28;102047;-53
2022/03/03 09:56:37;;;;;;;6.13;4.97;;;;;;;8.15;68.16;100502.00;4977135;28;102115;-53
2022/03/03 09:59:07;;;;;;;4.95;4.53;;;;;;;8.14;68.67;100494.09;4974191;28;102964;-53
2022/03/03 10:01:34;;;;;;;6.57;4.85;;;;;;;8.15;67.82;100495.72;4974299;28;101892;-53
2022/03/03 10:04:15;;;;;;;5.25;4.35;;;;;;;8.14;68.58;100489.50;4980422;28;101836;-53
2022/03/03 10:06:42;;;;;;;5.05;4.18;;;;;;;8.15;67.87;100495.72;4994760;28;102533;-53
2022/03/03 10:09:10;;;;;;;5.70;4.68;;;;;;;8.15;68.63;100490.31;4992754;28;102839;-53
2022/03/03 10:11:57;;;;;;;6.03;4.63;;;;;;;8.14;68.47;100483.25;4993853;28;101968;-53
2022/03/03 10:14:27;;;;;;;4.97;4.47;;;;;;;8.15;68.75;100484.88;4994600;28;101964;-53
2022/03/03 10:16:54;;;;;;;5.30;4.57;;;;;;;8.15;67.94;100476.75;4995871;28;102681;-53
2022/03/03 10:19:21;;;;;;;5.25;4.65;;;;;;;8.17;67.89;100482.75;4994621;28;102956;-53
2022/03/03 10:21:49;;;;;;;4.32;3.92;;;;;;;8.15;68.28;100474.03;4995119;28;102125;-54
2022/03/03 10:24:17;;;;;;;5.53;4.47;;;;;;;8.15;68.02;100480.31;4994025;28;102030;-53
2022/03/03 10:26:44;;;;;;;5.93;4.60;;;;;;;8.16;68.87;100481.13;4993603;28;102310;-53
2022/03/03 10:29:16;;;;;;;5.07;4.28;;;;;;;8.15;67.57;100480.31;4993418;28;103310;-53
2022/03/03 10:31:50;;;;;;;5.15;4.40;;;;;;;8.15;67.79;100474.03;4992775;28;102127;-53
2022/03/03 10:34:27;;;;;;;5.20;4.68;;;;;;;8.15;68.10;100479.47;4982753;28;101892;-54
2022/03/03 10:36:57;;;;;;;6.35;4.63;;;;;;;8.16;68.27;100478.41;4994833;28;101990;-53
2022/03/03 10:39:24;;;;;;;5.78;5.00;;;;;;;8.16;68.58;100475.69;4992073;28;104266;-53
2022/03/03 10:41:55;;;;;;;7.55;4.47;;;;;;;8.17;68.08;100472.72;4993747;28;102413;-53
2022/03/03 10:44:27;;;;;;;5.07;4.25;;;;;;;8.16;68.28;100473.00;4992552;28;102233;-53
2022/03/03 10:47:05;;;;;;;6.28;4.65;;;;;;;8.18;68.58;100473.53;5019722;28;102190;-53
2022/03/03 10:49:33;;;;;;;6.68;4.40;;;;;;;8.17;67.75;100471.91;5021137;27;102752;-53
2022/03/03 10:52:12;;;;;;;4.93;4.18;;;;;;;8.17;67.80;100477.31;5029452;28;102461;-53
2022/03/03 10:54:52;;;;;;;7.85;4.43;;;;;;;8.17;67.94;100471.91;5013162;28;102318;-53
2022/03/03 10:57:34;;;;;;;4.85;4.35;;;;;;;8.17;67.89;100467.28;5014642;28;102338;-53
2022/03/03 11:00:04;;;;;;;4.70;4.30;;;;;;;8.17;68.54;100469.19;5012864;28;103188;-53
2022/03/03 11:02:34;;;;;;;5.78;4.88;;;;;;;8.17;68.33;100463.78;5013014;28;102543;-53
2022/03/03 11:05:22;;;;;;;6.03;4.60;;;;;;;8.17;68.13;100467.28;5012354;28;101909;-53
2022/03/03 11:07:50;;;;;;;5.28;4.72;;;;;;;8.17;68.90;100466.47;5015511;28;102548;-53
2022/03/03 11:10:19;;;;;;;5.28;4.78;;;;;;;8.18;67.72;100462.69;5032538;27;103897;-53
2022/03/03 11:12:52;;;;;;;5.20;4.57;;;;;;;8.18;68.90;100458.06;5032942;28;102386;-54
2022/03/03 11:15:21;;;;;;;5.35;4.82;;;;;;;8.17;68.12;100455.63;5032413;28;102400;-53
2022/03/03 11:17:50;;;;;;;;;;;;;;;8.17;68.70;100461.06;5034017;27;102216;-53
2022/03/03 11:20:18;;;;;;;5.53;4.88;;;;;;;8.18;68.38;100457.25;4991435;28;103854;-53
2022/03/03 11:22:46;;;;;;;5.53;4.57;;;;;;;8.17;68.60;100455.63;4993120;28;102226;-55
2022/03/03 11:25:18;;;;;;;5.28;4.55;;;;;;;8.18;67.95;100459.97;4992852;28;101883;-53
2022/03/03 11:27:45;;;;;;;7.22;4.82;;;;;;;8.18;67.97;100457.25;4993502;28;102141;-53
2022/03/03 11:30:30;;;;;;;4.88;4.38;;;;;;;8.17;67.88;100451.03;4992902;28;102405;-53